sensor_id;sensor_type;location;lat;lon;timestamp;temperature;humidity
21267;DHT22;10791;53.108;18.326;2023-04-25T00:02:09;12.20;99.90
21267;DHT22;10791;53.108;18.326;2023-04-25T00:07:12;12.20;99.90
21267;DHT22;10791;53.108;18.326;2023-04-25T00:12:15;12.20;99.90
21267;DHT22;10791;53.108;18.326;2023-04-25T00:17:20;12.20;99.90
21267;DHT22;10791;53.108;18.326;2023-04-25T00:22:23;12.20;99.90
21267;DHT22;10791;53.108;18.326;2023-04-25T00:27:26;12.20;99.90
21267;DHT22;10791;53.108;18.326;2023-04-25T00:32:29;12.20;99.90
21267;DHT22;10791;53.108;18.326;2023-04-25T00:37:33;12.10;99.90
21267;DHT22;10791;53.108;18.326;2023-04-25T00:42:37;12.00;99.90
21267;DHT22;10791;53.108;18.326;2023-04-25T00:47:41;12.00;99.90
21267;DHT22;10791;53.108;18.326;2023-04-25T00:52:45;11.90;99.90
21267;DHT22;10791;53.108;18.326;2023-04-25T00:57:50;11.90;99.90
21267;DHT22;10791;53.108;18.326;2023-04-25T01:02:53;11.90;99.90
21267;DHT22;10791;53.108;18.326;2023-04-25T01:07:57;11.80;99.90
21267;DHT22;10791;53.108;18.326;2023-04-25T01:13:00;11.70;99.90
21267;DHT22;10791;53.108;18.326;2023-04-25T01:18:05;11.60;99.90
21267;DHT22;10791;53.108;18.326;2023-04-25T01:23:09;11.50;99.90
21267;DHT22;10791;53.108;18.326;2023-04-25T01:28:13;11.50;99.90
21267;DHT22;10791;53.108;18.326;2023-04-25T01:33:17;11.40;99.90
21267;DHT22;10791;53.108;18.326;2023-04-25T01:38:22;11.30;99.90
21267;DHT22;10791;53.108;18.326;2023-04-25T01:43:25;11.20;99.90
21267;DHT22;10791;53.108;18.326;2023-04-25T01:48:29;11.20;99.90
21267;DHT22;10791;53.108;18.326;2023-04-25T01:53:32;11.10;99.90
21267;DHT22;10791;53.108;18.326;2023-04-25T01:58:36;11.00;99.90
21267;DHT22;10791;53.108;18.326;2023-04-25T02:03:39;10.90;99.90
21267;DHT22;10791;53.108;18.326;2023-04-25T02:08:43;10.80;99.90
21267;DHT22;10791;53.108;18.326;2023-04-25T02:13:46;10.70;99.90
21267;DHT22;10791;53.108;18.326;2023-04-25T02:18:50;10.70;99.90
21267;DHT22;10791;53.108;18.326;2023-04-25T02:23:55;10.50;99.90
21267;DHT22;10791;53.108;18.326;2023-04-25T02:28:59;10.50;99.90
21267;DHT22;10791;53.108;18.326;2023-04-25T02:34:02;10.40;99.90
21267;DHT22;10791;53.108;18.326;2023-04-25T02:39:06;10.40;99.90
21267;DHT22;10791;53.108;18.326;2023-04-25T02:44:09;10.30;99.90
21267;DHT22;10791;53.108;18.326;2023-04-25T02:49:13;10.30;99.90
21267;DHT22;10791;53.108;18.326;2023-04-25T02:54:16;10.30;99.90
21267;DHT22;10791;53.108;18.326;2023-04-25T02:59:20;10.20;99.90
21267;DHT22;10791;53.108;18.326;2023-04-25T03:04:23;10.10;99.90
21267;DHT22;10791;53.108;18.326;2023-04-25T03:09:27;10.00;99.90
21267;DHT22;10791;53.108;18.326;2023-04-25T03:14:30;9.90;99.90
21267;DHT22;10791;53.108;18.326;2023-04-25T03:19:33;9.80;99.90
21267;DHT22;10791;53.108;18.326;2023-04-25T03:24:36;9.80;99.90
21267;DHT22;10791;53.108;18.326;2023-04-25T03:29:40;9.70;99.90
21267;DHT22;10791;53.108;18.326;2023-04-25T03:34:43;9.60;99.90
21267;DHT22;10791;53.108;18.326;2023-04-25T03:39:47;9.50;99.90
21267;DHT22;10791;53.108;18.326;2023-04-25T03:44:51;9.50;99.90
21267;DHT22;10791;53.108;18.326;2023-04-25T03:53:11;9.40;99.90
21267;DHT22;10791;53.108;18.326;2023-04-25T03:58:14;9.30;99.90
21267;DHT22;10791;53.108;18.326;2023-04-25T04:03:17;9.30;99.90
21267;DHT22;10791;53.108;18.326;2023-04-25T04:08:21;9.20;99.90
21267;DHT22;10791;53.108;18.326;2023-04-25T04:13:28;9.20;99.90
21267;DHT22;10791;53.108;18.326;2023-04-25T04:18:32;9.10;99.90
21267;DHT22;10791;53.108;18.326;2023-04-25T04:23:36;9.10;99.90
21267;DHT22;10791;53.108;18.326;2023-04-25T04:28:42;9.00;99.90
21267;DHT22;10791;53.108;18.326;2023-04-25T04:33:45;9.00;99.90
21267;DHT22;10791;53.108;18.326;2023-04-25T04:38:49;9.00;99.90
21267;DHT22;10791;53.108;18.326;2023-04-25T04:43:52;9.10;99.90
21267;DHT22;10791;53.108;18.326;2023-04-25T04:48:56;9.20;99.90
21267;DHT22;10791;53.108;18.326;2023-04-25T04:53:59;9.20;99.90
21267;DHT22;10791;53.108;18.326;2023-04-25T04:59:05;9.10;99.90
21267;DHT22;10791;53.108;18.326;2023-04-25T05:04:08;9.00;99.90
21267;DHT22;10791;53.108;18.326;2023-04-25T05:09:12;9.00;99.90
21267;DHT22;10791;53.108;18.326;2023-04-25T05:14:15;9.00;99.90
21267;DHT22;10791;53.108;18.326;2023-04-25T05:19:20;9.00;99.90
21267;DHT22;10791;53.108;18.326;2023-04-25T05:24:23;9.10;99.90
21267;DHT22;10791;53.108;18.326;2023-04-25T05:29:26;9.10;99.90
21267;DHT22;10791;53.108;18.326;2023-04-25T05:34:30;9.10;99.90
21267;DHT22;10791;53.108;18.326;2023-04-25T05:39:33;9.10;99.90
21267;DHT22;10791;53.108;18.326;2023-04-25T05:44:39;9.20;99.90
21267;DHT22;10791;53.108;18.326;2023-04-25T05:49:44;9.20;99.90
21267;DHT22;10791;53.108;18.326;2023-04-25T05:54:48;9.30;99.90
21267;DHT22;10791;53.108;18.326;2023-04-25T05:59:52;9.40;99.90
21267;DHT22;10791;53.108;18.326;2023-04-25T06:04:56;9.50;99.90
21267;DHT22;10791;53.108;18.326;2023-04-25T06:10:00;9.70;99.90
21267;DHT22;10791;53.108;18.326;2023-04-25T06:15:05;9.70;99.90
21267;DHT22;10791;53.108;18.326;2023-04-25T06:20:28;9.90;99.90
21267;DHT22;10791;53.108;18.326;2023-04-25T06:25:31;9.90;99.90
21267;DHT22;10791;53.108;18.326;2023-04-25T06:30:35;10.00;99.90
21267;DHT22;10791;53.108;18.326;2023-04-25T06:35:39;10.30;99.90
21267;DHT22;10791;53.108;18.326;2023-04-25T06:40:42;10.40;99.90
21267;DHT22;10791;53.108;18.326;2023-04-25T06:45:46;10.40;99.90
21267;DHT22;10791;53.108;18.326;2023-04-25T06:50:50;10.30;99.90
21267;DHT22;10791;53.108;18.326;2023-04-25T06:55:54;10.20;99.90
21267;DHT22;10791;53.108;18.326;2023-04-25T07:00:57;10.30;99.90
21267;DHT22;10791;53.108;18.326;2023-04-25T07:06:00;10.30;99.90
21267;DHT22;10791;53.108;18.326;2023-04-25T07:11:04;10.50;99.90
21267;DHT22;10791;53.108;18.326;2023-04-25T07:16:07;10.60;99.90
21267;DHT22;10791;53.108;18.326;2023-04-25T07:21:10;10.80;99.90
21267;DHT22;10791;53.108;18.326;2023-04-25T07:26:14;11.00;99.90
21267;DHT22;10791;53.108;18.326;2023-04-25T07:31:17;11.10;99.90
21267;DHT22;10791;53.108;18.326;2023-04-25T07:36:21;11.10;99.90
21267;DHT22;10791;53.108;18.326;2023-04-25T07:41:24;11.10;99.90
21267;DHT22;10791;53.108;18.326;2023-04-25T07:46:27;11.30;99.90
21267;DHT22;10791;53.108;18.326;2023-04-25T07:51:31;11.40;99.90
21267;DHT22;10791;53.108;18.326;2023-04-25T07:56:34;11.80;99.90
21267;DHT22;10791;53.108;18.326;2023-04-25T08:01:53;12.30;99.90
21267;DHT22;10791;53.108;18.326;2023-04-25T08:06:57;12.50;99.90
21267;DHT22;10791;53.108;18.326;2023-04-25T08:12:00;12.50;99.90
21267;DHT22;10791;53.108;18.326;2023-04-25T08:17:04;12.60;99.90
21267;DHT22;10791;53.108;18.326;2023-04-25T08:22:08;12.50;99.90
21267;DHT22;10791;53.108;18.326;2023-04-25T08:27:12;12.50;99.90
21267;DHT22;10791;53.108;18.326;2023-04-25T08:32:18;12.60;99.90
21267;DHT22;10791;53.108;18.326;2023-04-25T08:37:21;12.70;99.90
21267;DHT22;10791;53.108;18.326;2023-04-25T08:42:27;12.50;99.90
21267;DHT22;10791;53.108;18.326;2023-04-25T08:47:33;12.40;99.90
21267;DHT22;10791;53.108;18.326;2023-04-25T08:52:43;12.40;99.90
21267;DHT22;10791;53.108;18.326;2023-04-25T08:57:46;12.40;99.90
21267;DHT22;10791;53.108;18.326;2023-04-25T09:02:50;12.50;99.90
21267;DHT22;10791;53.108;18.326;2023-04-25T09:07:53;12.40;99.90
21267;DHT22;10791;53.108;18.326;2023-04-25T09:13:13;12.40;99.90
21267;DHT22;10791;53.108;18.326;2023-04-25T09:18:28;12.50;99.90
21267;DHT22;10791;53.108;18.326;2023-04-25T09:23:40;12.60;99.90
21267;DHT22;10791;53.108;18.326;2023-04-25T09:28:43;12.90;99.90
21267;DHT22;10791;53.108;18.326;2023-04-25T09:33:48;13.10;99.90
21267;DHT22;10791;53.108;18.326;2023-04-25T09:38:54;13.00;99.90
21267;DHT22;10791;53.108;18.326;2023-04-25T09:43:58;13.00;99.90
21267;DHT22;10791;53.108;18.326;2023-04-25T09:49:06;13.00;99.90
21267;DHT22;10791;53.108;18.326;2023-04-25T09:54:10;12.90;99.90
21267;DHT22;10791;53.108;18.326;2023-04-25T09:59:14;12.70;99.90
21267;DHT22;10791;53.108;18.326;2023-04-25T10:04:24;12.60;99.90
21267;DHT22;10791;53.108;18.326;2023-04-25T10:09:37;12.50;99.90
21267;DHT22;10791;53.108;18.326;2023-04-25T10:14:40;12.70;99.90
21267;DHT22;10791;53.108;18.326;2023-04-25T10:19:44;13.00;99.90
21267;DHT22;10791;53.108;18.326;2023-04-25T10:24:48;13.20;99.90
21267;DHT22;10791;53.108;18.326;2023-04-25T10:30:03;13.40;99.90
21267;DHT22;10791;53.108;18.326;2023-04-25T10:40:22;13.50;99.90
21267;DHT22;10791;53.108;18.326;2023-04-25T10:45:26;13.40;99.90
21267;DHT22;10791;53.108;18.326;2023-04-25T10:50:37;13.40;99.90
21267;DHT22;10791;53.108;18.326;2023-04-25T10:55:51;13.30;99.90
21267;DHT22;10791;53.108;18.326;2023-04-25T11:00:55;13.20;99.90
21267;DHT22;10791;53.108;18.326;2023-04-25T11:06:00;13.10;99.90
21267;DHT22;10791;53.108;18.326;2023-04-25T11:11:05;13.00;99.90
21267;DHT22;10791;53.108;18.326;2023-04-25T11:16:08;13.00;99.90
21267;DHT22;10791;53.108;18.326;2023-04-25T11:21:15;13.10;99.90
21267;DHT22;10791;53.108;18.326;2023-04-25T11:26:19;13.20;99.90
21267;DHT22;10791;53.108;18.326;2023-04-25T11:31:25;13.30;99.90
21267;DHT22;10791;53.108;18.326;2023-04-25T11:36:28;13.30;99.90
21267;DHT22;10791;53.108;18.326;2023-04-25T11:41:32;13.40;99.90
21267;DHT22;10791;53.108;18.326;2023-04-25T11:46:36;13.40;99.90
21267;DHT22;10791;53.108;18.326;2023-04-25T11:51:44;13.70;99.90
21267;DHT22;10791;53.108;18.326;2023-04-25T11:56:48;13.80;99.90
21267;DHT22;10791;53.108;18.326;2023-04-25T12:01:51;13.90;99.00
21267;DHT22;10791;53.108;18.326;2023-04-25T12:06:55;13.80;99.90
21267;DHT22;10791;53.108;18.326;2023-04-25T12:11:59;13.80;99.30
21267;DHT22;10791;53.108;18.326;2023-04-25T12:17:05;13.60;99.90
21267;DHT22;10791;53.108;18.326;2023-04-25T12:22:24;13.30;99.90
21267;DHT22;10791;53.108;18.326;2023-04-25T12:27:27;13.20;99.90
21267;DHT22;10791;53.108;18.326;2023-04-25T12:32:31;13.20;99.90
21267;DHT22;10791;53.108;18.326;2023-04-25T12:37:34;13.20;99.90
21267;DHT22;10791;53.108;18.326;2023-04-25T12:42:38;13.10;99.80
21267;DHT22;10791;53.108;18.326;2023-04-25T12:47:41;12.80;99.90
21267;DHT22;10791;53.108;18.326;2023-04-25T12:52:44;12.80;99.90
21267;DHT22;10791;53.108;18.326;2023-04-25T12:57:48;12.80;99.90
21267;DHT22;10791;53.108;18.326;2023-04-25T13:02:51;13.00;99.90
21267;DHT22;10791;53.108;18.326;2023-04-25T13:07:55;13.10;99.90
21267;DHT22;10791;53.108;18.326;2023-04-25T13:12:58;13.30;99.90
21267;DHT22;10791;53.108;18.326;2023-04-25T13:18:03;13.40;99.90
21267;DHT22;10791;53.108;18.326;2023-04-25T13:23:06;13.60;99.50
21267;DHT22;10791;53.108;18.326;2023-04-25T13:28:10;13.90;98.30
21267;DHT22;10791;53.108;18.326;2023-04-25T13:33:15;14.10;98.60
21267;DHT22;10791;53.108;18.326;2023-04-25T13:38:18;14.10;97.50
21267;DHT22;10791;53.108;18.326;2023-04-25T13:43:22;14.10;98.00
21267;DHT22;10791;53.108;18.326;2023-04-25T13:48:25;13.70;98.30
21267;DHT22;10791;53.108;18.326;2023-04-25T13:53:28;13.60;98.80
21267;DHT22;10791;53.108;18.326;2023-04-25T13:58:32;13.40;98.80
21267;DHT22;10791;53.108;18.326;2023-04-25T14:03:35;13.50;98.30
21267;DHT22;10791;53.108;18.326;2023-04-25T14:08:39;13.40;99.40
21267;DHT22;10791;53.108;18.326;2023-04-25T14:13:43;13.30;99.50
21267;DHT22;10791;53.108;18.326;2023-04-25T14:18:46;13.30;99.90
21267;DHT22;10791;53.108;18.326;2023-04-25T14:23:50;13.10;99.80
21267;DHT22;10791;53.108;18.326;2023-04-25T14:28:54;13.00;98.50
21267;DHT22;10791;53.108;18.326;2023-04-25T14:33:57;13.00;99.90
21267;DHT22;10791;53.108;18.326;2023-04-25T14:39:02;13.10;99.70
21267;DHT22;10791;53.108;18.326;2023-04-25T14:44:05;13.10;99.90
21267;DHT22;10791;53.108;18.326;2023-04-25T14:49:09;13.30;99.90
21267;DHT22;10791;53.108;18.326;2023-04-25T14:54:12;13.70;99.90
21267;DHT22;10791;53.108;18.326;2023-04-25T14:59:16;13.90;99.40
21267;DHT22;10791;53.108;18.326;2023-04-25T15:04:19;13.70;99.80
21267;DHT22;10791;53.108;18.326;2023-04-25T15:09:23;12.80;99.10
21267;DHT22;10791;53.108;18.326;2023-04-25T15:14:27;12.10;99.40
21267;DHT22;10791;53.108;18.326;2023-04-25T15:19:30;11.60;99.90
21267;DHT22;10791;53.108;18.326;2023-04-25T15:24:33;11.40;99.90
21267;DHT22;10791;53.108;18.326;2023-04-25T15:29:37;11.10;99.90
21267;DHT22;10791;53.108;18.326;2023-04-25T15:34:40;11.00;99.90
21267;DHT22;10791;53.108;18.326;2023-04-25T15:39:44;10.90;99.90
21267;DHT22;10791;53.108;18.326;2023-04-25T15:44:50;10.70;99.90
21267;DHT22;10791;53.108;18.326;2023-04-25T15:49:54;10.60;99.90
21267;DHT22;10791;53.108;18.326;2023-04-25T15:54:57;10.60;99.90
21267;DHT22;10791;53.108;18.326;2023-04-25T16:00:02;10.40;99.90
21267;DHT22;10791;53.108;18.326;2023-04-25T16:05:07;10.30;99.90
21267;DHT22;10791;53.108;18.326;2023-04-25T16:10:12;10.30;99.90
21267;DHT22;10791;53.108;18.326;2023-04-25T16:15:16;10.30;99.90
21267;DHT22;10791;53.108;18.326;2023-04-25T16:20:20;10.30;99.90
21267;DHT22;10791;53.108;18.326;2023-04-25T16:25:25;10.40;99.90
21267;DHT22;10791;53.108;18.326;2023-04-25T16:30:29;10.50;99.90
21267;DHT22;10791;53.108;18.326;2023-04-25T16:35:32;10.50;99.90
21267;DHT22;10791;53.108;18.326;2023-04-25T16:40:36;10.50;99.90
21267;DHT22;10791;53.108;18.326;2023-04-25T16:45:40;10.50;99.90
21267;DHT22;10791;53.108;18.326;2023-04-25T16:50:44;10.50;99.90
21267;DHT22;10791;53.108;18.326;2023-04-25T16:55:47;10.50;99.90
21267;DHT22;10791;53.108;18.326;2023-04-25T17:00:51;10.50;99.90
21267;DHT22;10791;53.108;18.326;2023-04-25T17:05:56;10.40;99.90
21267;DHT22;10791;53.108;18.326;2023-04-25T17:11:00;10.30;99.90
21267;DHT22;10791;53.108;18.326;2023-04-25T17:16:05;10.20;99.90
21267;DHT22;10791;53.108;18.326;2023-04-25T17:21:09;10.20;99.90
21267;DHT22;10791;53.108;18.326;2023-04-25T17:26:14;10.10;99.90
21267;DHT22;10791;53.108;18.326;2023-04-25T17:31:19;10.10;99.90
21267;DHT22;10791;53.108;18.326;2023-04-25T17:36:23;10.00;99.90
21267;DHT22;10791;53.108;18.326;2023-04-25T17:41:28;9.90;99.90
21267;DHT22;10791;53.108;18.326;2023-04-25T17:46:31;9.90;99.90
21267;DHT22;10791;53.108;18.326;2023-04-25T17:51:37;9.80;99.90
21267;DHT22;10791;53.108;18.326;2023-04-25T17:56:45;9.80;99.90
21267;DHT22;10791;53.108;18.326;2023-04-25T18:01:49;9.80;99.90
21267;DHT22;10791;53.108;18.326;2023-04-25T18:06:53;9.60;99.90
21267;DHT22;10791;53.108;18.326;2023-04-25T18:12:00;9.60;99.90
21267;DHT22;10791;53.108;18.326;2023-04-25T18:17:04;9.60;99.90
21267;DHT22;10791;53.108;18.326;2023-04-25T18:22:11;9.50;99.90
21267;DHT22;10791;53.108;18.326;2023-04-25T18:27:19;9.50;99.90
21267;DHT22;10791;53.108;18.326;2023-04-25T18:32:25;9.40;99.90
21267;DHT22;10791;53.108;18.326;2023-04-25T18:37:35;9.20;99.90
21267;DHT22;10791;53.108;18.326;2023-04-25T18:42:46;9.10;99.90
21267;DHT22;10791;53.108;18.326;2023-04-25T18:47:52;8.90;99.90
21267;DHT22;10791;53.108;18.326;2023-04-25T18:52:57;8.90;99.90
21267;DHT22;10791;53.108;18.326;2023-04-25T18:58:05;8.80;99.90
21267;DHT22;10791;53.108;18.326;2023-04-25T19:03:11;8.80;99.90
21267;DHT22;10791;53.108;18.326;2023-04-25T19:08:17;8.80;99.90
21267;DHT22;10791;53.108;18.326;2023-04-25T19:13:21;8.60;99.90
21267;DHT22;10791;53.108;18.326;2023-04-25T19:18:25;8.60;99.90
21267;DHT22;10791;53.108;18.326;2023-04-25T19:23:31;8.60;99.90
21267;DHT22;10791;53.108;18.326;2023-04-25T19:28:37;8.60;99.90
21267;DHT22;10791;53.108;18.326;2023-04-25T19:33:46;8.60;99.90
21267;DHT22;10791;53.108;18.326;2023-04-25T19:38:50;8.60;99.90
21267;DHT22;10791;53.108;18.326;2023-04-25T19:44:06;8.60;99.90
21267;DHT22;10791;53.108;18.326;2023-04-25T19:49:12;8.50;99.90
21267;DHT22;10791;53.108;18.326;2023-04-25T19:54:17;8.50;99.90
21267;DHT22;10791;53.108;18.326;2023-04-25T19:59:26;8.50;99.90
21267;DHT22;10791;53.108;18.326;2023-04-25T20:04:30;8.40;99.90
21267;DHT22;10791;53.108;18.326;2023-04-25T20:09:40;8.30;99.90
21267;DHT22;10791;53.108;18.326;2023-04-25T20:14:45;8.30;99.90
21267;DHT22;10791;53.108;18.326;2023-04-25T20:19:50;8.10;99.90
21267;DHT22;10791;53.108;18.326;2023-04-25T20:24:53;8.00;99.90
21267;DHT22;10791;53.108;18.326;2023-04-25T20:29:57;7.90;99.90
21267;DHT22;10791;53.108;18.326;2023-04-25T20:35:08;7.80;99.90
21267;DHT22;10791;53.108;18.326;2023-04-25T20:40:13;7.70;99.90
21267;DHT22;10791;53.108;18.326;2023-04-25T20:45:18;7.50;99.90
21267;DHT22;10791;53.108;18.326;2023-04-25T20:50:21;7.40;99.90
21267;DHT22;10791;53.108;18.326;2023-04-25T20:55:25;7.30;99.90
21267;DHT22;10791;53.108;18.326;2023-04-25T21:00:29;7.30;99.90
21267;DHT22;10791;53.108;18.326;2023-04-25T21:05:32;7.20;99.90
21267;DHT22;10791;53.108;18.326;2023-04-25T21:10:35;7.10;99.90
21267;DHT22;10791;53.108;18.326;2023-04-25T21:15:39;7.00;99.90
21267;DHT22;10791;53.108;18.326;2023-04-25T21:20:42;6.90;99.90
21267;DHT22;10791;53.108;18.326;2023-04-25T21:25:46;6.80;99.90
21267;DHT22;10791;53.108;18.326;2023-04-25T21:30:51;6.70;99.90
21267;DHT22;10791;53.108;18.326;2023-04-25T21:35:54;6.60;99.90
21267;DHT22;10791;53.108;18.326;2023-04-25T21:40:58;6.50;99.90
21267;DHT22;10791;53.108;18.326;2023-04-25T21:46:02;6.40;99.90
21267;DHT22;10791;53.108;18.326;2023-04-25T21:51:08;6.30;99.90
21267;DHT22;10791;53.108;18.326;2023-04-25T21:56:12;6.20;99.90
21267;DHT22;10791;53.108;18.326;2023-04-25T22:01:15;6.10;99.90
21267;DHT22;10791;53.108;18.326;2023-04-25T22:06:18;5.90;99.90
21267;DHT22;10791;53.108;18.326;2023-04-25T22:11:22;5.70;99.90
21267;DHT22;10791;53.108;18.326;2023-04-25T22:16:26;5.50;99.90
21267;DHT22;10791;53.108;18.326;2023-04-25T22:21:31;5.40;99.90
21267;DHT22;10791;53.108;18.326;2023-04-25T22:26:34;5.20;99.90
21267;DHT22;10791;53.108;18.326;2023-04-25T22:31:37;5.10;99.90
21267;DHT22;10791;53.108;18.326;2023-04-25T22:36:41;5.00;99.90
21267;DHT22;10791;53.108;18.326;2023-04-25T22:41:44;4.90;99.90
21267;DHT22;10791;53.108;18.326;2023-04-25T22:46:48;4.80;99.90
21267;DHT22;10791;53.108;18.326;2023-04-25T22:51:52;4.80;99.90
21267;DHT22;10791;53.108;18.326;2023-04-25T22:56:58;4.70;99.90
21267;DHT22;10791;53.108;18.326;2023-04-25T23:02:01;4.60;99.90
21267;DHT22;10791;53.108;18.326;2023-04-25T23:07:05;4.60;99.90
21267;DHT22;10791;53.108;18.326;2023-04-25T23:12:09;4.60;99.90
21267;DHT22;10791;53.108;18.326;2023-04-25T23:17:12;4.60;99.90
21267;DHT22;10791;53.108;18.326;2023-04-25T23:22:16;4.70;99.90
21267;DHT22;10791;53.108;18.326;2023-04-25T23:27:19;4.70;99.90
21267;DHT22;10791;53.108;18.326;2023-04-25T23:32:23;4.80;99.90
21267;DHT22;10791;53.108;18.326;2023-04-25T23:37:28;4.90;99.90
21267;DHT22;10791;53.108;18.326;2023-04-25T23:42:33;4.90;99.90
21267;DHT22;10791;53.108;18.326;2023-04-25T23:47:36;5.00;99.90
21267;DHT22;10791;53.108;18.326;2023-04-25T23:52:40;5.00;99.90
21267;DHT22;10791;53.108;18.326;2023-04-25T23:57:43;5.20;99.90
